createdAt,value
2022-09-18T00:01:39.579Z,100.00
2022-09-18T00:04:10.762Z,100.00
2022-09-18T00:06:40.676Z,100.00
2022-09-18T00:09:14.386Z,100.00
2022-09-18T00:11:48.473Z,100.00
2022-09-18T00:14:21.553Z,100.00
2022-09-18T00:16:50.618Z,100.00
2022-09-18T00:19:19.401Z,100.00
2022-09-18T00:21:50.359Z,100.00
2022-09-18T00:24:19.906Z,100.00
2022-09-18T00:26:48.021Z,100.00
2022-09-18T00:29:17.406Z,100.00
2022-09-18T00:31:45.744Z,100.00
2022-09-18T00:34:15.182Z,100.00
2022-09-18T00:36:42.704Z,100.00
2022-09-18T00:39:11.926Z,100.00
2022-09-18T00:41:42.093Z,100.00
2022-09-18T00:44:34.690Z,100.00
2022-09-18T00:47:25.211Z,100.00
2022-09-18T00:50:01.937Z,100.00
2022-09-18T00:52:57.899Z,100.00
2022-09-18T00:55:38.062Z,100.00
2022-09-18T00:58:06.937Z,100.00
2022-09-18T01:00:35.179Z,100.00
2022-09-18T01:03:02.798Z,100.00
2022-09-18T01:05:51.811Z,100.00
2022-09-18T01:08:54.591Z,100.00
2022-09-18T01:12:00.984Z,100.00
2022-09-18T01:14:40.919Z,100.00
2022-09-18T01:17:39.037Z,100.00
2022-09-18T01:20:54.135Z,100.00
2022-09-18T01:23:54.088Z,100.00
2022-09-18T01:26:45.569Z,100.00
2022-09-18T01:29:36.502Z,100.00
2022-09-18T01:32:48.791Z,100.00
2022-09-18T01:35:45.845Z,100.00
2022-09-18T01:38:29.157Z,100.00
2022-09-18T01:41:09.801Z,100.00
2022-09-18T01:43:39.855Z,100.00
2022-09-18T01:46:14.728Z,100.00
2022-09-18T01:48:57.740Z,100.00
2022-09-18T01:51:51.137Z,100.00
2022-09-18T01:54:27.700Z,100.00
2022-09-18T01:57:17.554Z,100.00
2022-09-18T02:00:12.222Z,100.00
2022-09-18T02:03:09.938Z,100.00
2022-09-18T02:05:48.501Z,100.00
2022-09-18T02:08:38.723Z,100.00
2022-09-18T02:11:15.139Z,100.00
2022-09-18T02:14:08.018Z,100.00
2022-09-18T02:17:20.743Z,100.00
2022-09-18T02:19:59.136Z,100.00
2022-09-18T02:22:32.530Z,100.00
2022-09-18T02:25:05.726Z,100.00
2022-09-18T02:27:36.168Z,100.00
2022-09-18T02:30:06.576Z,100.00
2022-09-18T02:32:40.428Z,100.00
2022-09-18T02:35:11.179Z,100.00
2022-09-18T02:38:35.866Z,100.00
2022-09-18T02:41:20.242Z,100.00
2022-09-18T02:44:06.121Z,100.00
2022-09-18T02:46:49.285Z,99.87
2022-09-18T02:49:40.946Z,99.05
2022-09-18T02:52:42.612Z,98.58
2022-09-18T02:55:36.965Z,98.32
2022-09-18T02:58:15.980Z,98.75
2022-09-18T03:00:49.119Z,97.66
2022-09-18T03:03:26.326Z,96.26
2022-09-18T03:05:58.724Z,95.25
2022-09-18T03:08:26.673Z,95.79
2022-09-18T03:10:54.824Z,96.10
2022-09-18T03:13:22.378Z,96.24
2022-09-18T03:15:50.237Z,96.08
2022-09-18T03:18:20.381Z,97.04
2022-09-18T03:20:48.225Z,97.88
2022-09-18T03:23:16.274Z,97.95
2022-09-18T03:25:44.803Z,98.48
2022-09-18T03:28:14.488Z,99.11
2022-09-18T03:30:45.358Z,99.18
2022-09-18T03:33:14.066Z,99.26
2022-09-18T03:35:44.298Z,98.26
2022-09-18T03:38:11.890Z,97.56
2022-09-18T03:40:41.321Z,97.12
2022-09-18T03:43:12.850Z,97.44
2022-09-18T03:45:41.208Z,98.09
2022-09-18T03:48:08.662Z,98.62
2022-09-18T03:50:37.126Z,98.91
2022-09-18T03:53:08.463Z,98.82
2022-09-18T03:55:42.525Z,99.28
2022-09-18T03:58:41.964Z,98.25
2022-09-18T04:01:15.654Z,97.84
2022-09-18T04:04:03.282Z,98.21
2022-09-18T04:06:49.366Z,97.98
2022-09-18T04:09:52.247Z,97.89
2022-09-18T04:12:20.759Z,97.17
2022-09-18T04:14:56.497Z,96.67
2022-09-18T04:17:25.080Z,95.87
2022-09-18T04:19:53.697Z,94.71
2022-09-18T04:22:22.678Z,95.85
2022-09-18T04:24:50.617Z,94.60
2022-09-18T04:27:18.634Z,95.98
2022-09-18T04:29:46.210Z,94.46
2022-09-18T04:32:16.152Z,95.56
2022-09-18T04:34:43.755Z,95.87
2022-09-18T04:37:12.730Z,94.91
2022-09-18T04:39:40.755Z,95.09
2022-09-18T04:42:09.796Z,94.10
2022-09-18T04:44:38.619Z,94.00
2022-09-18T04:47:07.636Z,93.48
2022-09-18T04:49:35.230Z,92.77
2022-09-18T04:52:03.228Z,92.61
2022-09-18T04:54:31.068Z,93.97
2022-09-18T04:56:58.713Z,92.92
2022-09-18T04:59:26.370Z,92.90
2022-09-18T05:01:57.712Z,93.35
2022-09-18T05:04:25.302Z,92.97
2022-09-18T05:07:01.745Z,93.33
2022-09-18T05:09:29.525Z,92.38
2022-09-18T05:11:57.323Z,91.99
2022-09-18T05:14:25.697Z,91.65
2022-09-18T05:16:57.996Z,91.78
2022-09-18T05:19:32.498Z,91.81
2022-09-18T05:22:05.225Z,90.11
2022-09-18T05:24:36.409Z,90.78
2022-09-18T05:27:04.168Z,89.96
2022-09-18T05:29:31.763Z,88.16
2022-09-18T05:32:08.913Z,88.57
2022-09-18T05:34:37.837Z,89.40
2022-09-18T05:37:07.310Z,89.14
2022-09-18T05:39:35.095Z,88.33
2022-09-18T05:42:04.267Z,87.85
2022-09-18T05:44:31.785Z,88.12
2022-09-18T05:46:59.760Z,87.16
2022-09-18T05:49:28.593Z,87.68
2022-09-18T05:51:57.721Z,86.76
2022-09-18T05:54:29.351Z,88.47
2022-09-18T05:56:58.730Z,88.27
2022-09-18T05:59:26.204Z,88.92
2022-09-18T06:01:56.479Z,88.19
2022-09-18T06:04:35.334Z,87.81
2022-09-18T06:07:07.254Z,87.81
2022-09-18T06:09:35.006Z,88.68
2022-09-18T06:12:02.859Z,87.07
2022-09-18T06:14:35.336Z,86.54
2022-09-18T06:17:03.867Z,86.83
2022-09-18T06:19:37.280Z,85.50
2022-09-18T06:22:09.519Z,84.46
2022-09-18T06:24:38.036Z,83.71
2022-09-18T06:27:11.416Z,84.13
2022-09-18T06:29:40.078Z,84.39
2022-09-18T06:32:13.854Z,84.50
2022-09-18T06:34:41.797Z,82.38
2022-09-18T06:37:13.663Z,82.19
2022-09-18T06:39:44.659Z,82.09
2022-09-18T06:42:45.275Z,82.29
2022-09-18T06:45:31.085Z,80.70
2022-09-18T06:48:03.668Z,80.85
2022-09-18T06:50:33.503Z,80.69
2022-09-18T06:53:11.544Z,80.59
2022-09-18T06:55:49.202Z,81.64
2022-09-18T06:58:19.500Z,81.95
2022-09-18T07:00:50.937Z,80.92
2022-09-18T07:03:25.387Z,81.43
2022-09-18T07:06:10.358Z,79.63
2022-09-18T07:08:47.073Z,79.93
2022-09-18T07:11:49.934Z,79.81
2022-09-18T07:14:17.631Z,77.89
2022-09-18T07:16:45.184Z,77.98
2022-09-18T07:19:13.434Z,77.10
2022-09-18T07:21:41.327Z,78.38
2022-09-18T07:24:10.118Z,77.52
2022-09-18T07:29:53.019Z,75.98
2022-09-18T07:32:22.265Z,74.05
2022-09-18T07:34:50.120Z,71.65
2022-09-18T07:37:25.547Z,71.46
2022-09-18T07:40:13.372Z,70.02
2022-09-18T07:43:02.793Z,69.60
2022-09-18T07:45:31.437Z,70.75
2022-09-18T07:48:05.471Z,67.70
2022-09-18T07:50:39.756Z,69.07
2022-09-18T07:53:11.602Z,70.84
2022-09-18T07:55:48.064Z,71.41
2022-09-18T07:58:15.989Z,70.68
2022-09-18T08:01:03.069Z,70.68
2022-09-18T08:03:35.034Z,70.99
2022-09-18T08:06:11.436Z,71.48
2022-09-18T08:08:50.756Z,72.18
2022-09-18T08:11:35.982Z,71.15
2022-09-18T08:14:25.448Z,68.86
2022-09-18T08:17:13.804Z,70.68
2022-09-18T08:20:02.146Z,71.95
2022-09-18T08:22:50.924Z,69.44
2022-09-18T08:25:23.289Z,67.36
2022-09-18T08:27:52.087Z,67.93
2022-09-18T08:30:32.021Z,68.12
2022-09-18T08:33:07.816Z,68.16
2022-09-18T08:35:36.068Z,67.94
2022-09-18T08:38:17.664Z,67.13
2022-09-18T08:42:01.245Z,64.97
2022-09-18T08:44:59.779Z,66.15
2022-09-18T08:47:39.973Z,66.23
2022-09-18T08:50:25.921Z,64.78
2022-09-18T08:53:23.637Z,64.05
2022-09-18T08:56:23.886Z,66.99
2022-09-18T08:59:40.056Z,65.14
2022-09-18T09:02:27.629Z,64.52
2022-09-18T09:05:06.360Z,62.48
2022-09-18T09:07:54.139Z,63.76
2022-09-18T09:10:35.102Z,64.27
2022-09-18T09:13:38.093Z,63.79
2022-09-18T09:16:22.873Z,63.30
2022-09-18T09:19:22.330Z,64.97
2022-09-18T09:22:03.911Z,62.38
2022-09-18T09:24:58.943Z,64.25
2022-09-18T09:28:22.874Z,61.68
2022-09-18T09:31:18.868Z,63.43
2022-09-18T09:34:27.517Z,60.77
2022-09-18T09:37:04.015Z,61.24
2022-09-18T09:39:40.911Z,58.62
2022-09-18T09:42:23.640Z,58.96
2022-09-18T09:45:10.338Z,56.51
2022-09-18T09:48:19.010Z,56.01
2022-09-18T09:50:49.556Z,54.27
2022-09-18T09:53:17.280Z,52.81
2022-09-18T09:56:23.123Z,54.58
2022-09-18T09:59:38.888Z,54.59
2022-09-18T10:02:54.307Z,55.47
2022-09-18T10:05:36.992Z,54.87
2022-09-18T10:08:19.765Z,53.28
2022-09-18T10:11:00.797Z,52.91
2022-09-18T10:13:55.807Z,54.36
2022-09-18T10:16:29.514Z,53.98
2022-09-18T10:19:00.868Z,54.73
2022-09-18T10:21:36.210Z,53.57
2022-09-18T10:24:27.451Z,53.73
2022-09-18T10:27:09.609Z,52.34
2022-09-18T10:29:37.307Z,53.42
2022-09-18T10:32:11.657Z,53.33
2022-09-18T10:34:52.467Z,52.52
2022-09-18T10:37:29.153Z,52.53
2022-09-18T10:40:05.719Z,50.64
2022-09-18T10:42:37.362Z,48.96
2022-09-18T10:45:30.601Z,49.84
2022-09-18T10:48:23.764Z,50.70
2022-09-18T10:51:00.855Z,50.33
2022-09-18T10:53:42.413Z,49.27
2022-09-18T10:56:21.281Z,46.42
2022-09-18T10:58:52.556Z,45.72
2022-09-18T11:01:21.427Z,45.59
2022-09-18T11:04:04.639Z,45.68
2022-09-18T11:06:38.549Z,44.54
2022-09-18T11:09:37.216Z,44.99
2022-09-18T11:12:22.395Z,43.92
2022-09-18T11:15:07.973Z,43.65
2022-09-18T11:17:51.415Z,43.15
2022-09-18T11:20:43.144Z,42.03
2022-09-18T11:23:36.764Z,40.60
2022-09-18T11:26:29.876Z,41.07
2022-09-18T11:29:02.478Z,40.22
2022-09-18T11:31:46.772Z,40.18
2022-09-18T11:34:30.330Z,39.82
2022-09-18T11:37:11.798Z,38.36
2022-09-18T11:39:45.929Z,39.12
2022-09-18T11:42:17.590Z,38.53
2022-09-18T11:44:48.143Z,37.94
2022-09-18T11:47:31.874Z,38.46
2022-09-18T11:50:25.133Z,39.44
2022-09-18T11:53:29.963Z,38.88
2022-09-18T11:56:15.861Z,39.05
2022-09-18T11:59:30.790Z,38.36
2022-09-18T12:02:14.683Z,38.78
2022-09-18T12:04:59.040Z,38.04
2022-09-18T12:08:17.709Z,38.61
2022-09-18T12:11:04.243Z,38.50
2022-09-18T12:14:17.031Z,38.19
2022-09-18T12:17:20.176Z,38.76
2022-09-18T12:19:56.871Z,38.65
2022-09-18T12:22:55.103Z,39.55
2022-09-18T12:26:20.275Z,40.16
2022-09-18T12:29:40.742Z,40.38
2022-09-18T12:32:29.692Z,40.52
2022-09-18T12:35:13.100Z,39.83
2022-09-18T12:38:06.571Z,38.37
2022-09-18T12:41:12.782Z,37.72
2022-09-18T12:44:05.057Z,37.67
2022-09-18T12:47:00.457Z,37.42
2022-09-18T12:50:00.617Z,36.93
2022-09-18T12:53:08.960Z,38.16
2022-09-18T12:55:59.114Z,37.09
2022-09-18T12:59:24.565Z,37.16
2022-09-18T13:02:06.574Z,37.01
2022-09-18T13:04:43.551Z,36.93
2022-09-18T13:07:38.144Z,36.83
2022-09-18T13:10:31.063Z,37.18
2022-09-18T13:13:11.354Z,36.89
2022-09-18T13:15:47.646Z,37.63
2022-09-18T13:18:45.498Z,37.53
2022-09-18T13:21:44.040Z,36.45
2022-09-18T13:24:33.887Z,35.41
2022-09-18T13:27:16.486Z,35.29
2022-09-18T13:29:51.381Z,35.63
2022-09-18T13:32:24.518Z,36.55
2022-09-18T13:35:07.619Z,36.13
2022-09-18T13:37:35.171Z,35.98
2022-09-18T13:40:26.329Z,34.76
2022-09-18T13:42:54.239Z,33.57
2022-09-18T13:45:26.476Z,33.05
2022-09-18T13:48:08.320Z,30.29
2022-09-18T13:50:37.964Z,30.16
2022-09-18T13:53:06.454Z,30.11
2022-09-18T13:55:50.185Z,30.92
2022-09-18T13:58:36.612Z,30.78
2022-09-18T14:01:10.376Z,31.45
2022-09-18T14:03:41.091Z,31.40
2022-09-18T14:06:36.737Z,29.86
2022-09-18T14:09:44.769Z,28.03
2022-09-18T14:12:15.312Z,28.32
2022-09-18T14:14:56.101Z,26.86
2022-09-18T14:17:28.475Z,25.63
2022-09-18T14:20:20.252Z,26.34
2022-09-18T14:22:48.724Z,27.17
2022-09-18T14:25:45.599Z,27.29
2022-09-18T14:28:14.655Z,27.01
2022-09-18T14:30:42.593Z,26.81
2022-09-18T14:33:20.923Z,26.72
2022-09-18T14:35:54.384Z,27.72
2022-09-18T14:38:38.035Z,27.75
2022-09-18T14:41:23.843Z,28.78
2022-09-18T14:44:01.379Z,27.96
2022-09-18T14:46:32.057Z,27.78
2022-09-18T14:49:34.153Z,28.11
2022-09-18T14:52:04.860Z,29.37
2022-09-18T14:54:39.301Z,29.44
2022-09-18T14:57:14.159Z,29.41
2022-09-18T14:59:41.874Z,29.50
2022-09-18T15:02:31.595Z,29.52
2022-09-18T15:05:03.669Z,29.74
2022-09-18T15:07:31.654Z,30.26
2022-09-18T15:10:01.434Z,28.94
2022-09-18T15:12:31.636Z,27.17
2022-09-18T15:14:59.545Z,26.51
2022-09-18T15:18:42.864Z,26.28
2022-09-18T15:21:35.155Z,23.31
2022-09-18T15:24:03.985Z,23.88
2022-09-18T15:26:40.985Z,23.37
2022-09-18T15:29:30.989Z,23.70
2022-09-18T15:32:02.771Z,23.72
2022-09-18T15:34:43.522Z,24.15
2022-09-18T15:37:20.704Z,23.95
2022-09-18T15:39:59.219Z,25.07
2022-09-18T15:42:40.654Z,24.80
2022-09-18T15:45:08.203Z,25.85
2022-09-18T15:47:42.811Z,26.06
2022-09-18T15:50:13.526Z,26.61
2022-09-18T15:53:37.309Z,27.30
2022-09-18T15:56:19.034Z,28.29
2022-09-18T15:58:55.141Z,30.69
2022-09-18T16:01:35.413Z,31.62
2022-09-18T16:04:17.983Z,31.80
2022-09-18T16:07:01.476Z,33.80
2022-09-18T16:09:41.343Z,33.76
2022-09-18T16:12:42.416Z,34.15
2022-09-18T16:15:25.470Z,33.94
2022-09-18T16:18:21.686Z,34.21
2022-09-18T16:20:53.796Z,34.65
2022-09-18T16:23:59.202Z,36.24
2022-09-18T16:26:36.496Z,37.98
2022-09-18T16:29:20.989Z,39.81
2022-09-18T16:31:49.223Z,41.11
2022-09-18T16:34:28.801Z,42.19
2022-09-18T16:36:58.260Z,44.55
2022-09-18T16:39:27.230Z,45.64
2022-09-18T16:41:54.753Z,47.18
2022-09-18T16:44:22.817Z,48.92
2022-09-18T16:46:59.041Z,49.97
2022-09-18T16:49:31.553Z,50.88
2022-09-18T16:51:59.572Z,51.91
2022-09-18T16:54:27.549Z,53.54
2022-09-18T16:57:12.795Z,54.05
2022-09-18T16:59:43.520Z,55.73
2022-09-18T17:02:17.104Z,56.31
2022-09-18T17:04:45.027Z,56.68
2022-09-18T17:07:12.533Z,57.78
2022-09-18T17:09:40.417Z,58.10
2022-09-18T17:12:08.418Z,58.26
2022-09-18T17:14:36.019Z,58.93
2022-09-18T17:17:04.549Z,59.79
2022-09-18T17:19:32.157Z,60.08
2022-09-18T17:21:59.781Z,60.34
2022-09-18T17:24:28.216Z,60.45
2022-09-18T17:26:55.827Z,60.80
2022-09-18T17:29:23.385Z,61.70
2022-09-18T17:31:52.467Z,61.09
2022-09-18T17:34:22.035Z,60.65
2022-09-18T17:36:50.062Z,60.51
2022-09-18T17:39:18.159Z,60.03
2022-09-18T17:41:45.929Z,60.91
2022-09-18T17:44:13.609Z,56.89
2022-09-18T17:46:41.538Z,57.66
2022-09-18T17:49:09.172Z,59.33
2022-09-18T17:51:37.133Z,58.95
2022-09-18T17:54:05.877Z,58.93
2022-09-18T17:56:34.180Z,58.30
2022-09-18T17:59:06.428Z,58.27
2022-09-18T18:01:43.233Z,59.06
2022-09-18T18:04:11.112Z,59.90
2022-09-18T18:06:39.448Z,59.39
2022-09-18T18:09:10.059Z,59.80
2022-09-18T18:11:38.495Z,60.24
2022-09-18T18:14:06.450Z,59.86
2022-09-18T18:16:34.916Z,56.29
2022-09-18T18:19:06.850Z,57.32
2022-09-18T18:21:35.350Z,58.66
2022-09-18T18:24:06.869Z,58.40
2022-09-18T18:26:38.843Z,60.02
2022-09-18T18:29:10.736Z,59.50
2022-09-18T18:31:42.096Z,59.26
2022-09-18T18:34:13.633Z,59.04
2022-09-18T18:36:42.851Z,60.15
2022-09-18T18:39:13.045Z,59.27
2022-09-18T18:41:42.492Z,56.82
2022-09-18T18:44:13.237Z,53.66
2022-09-18T18:46:41.476Z,52.53
2022-09-18T18:49:15.037Z,52.56
2022-09-18T18:51:48.762Z,51.87
2022-09-18T18:54:22.255Z,51.07
2022-09-18T18:56:50.665Z,51.08
2022-09-18T18:59:22.225Z,50.63
2022-09-18T19:01:50.315Z,50.56
2022-09-18T19:04:19.298Z,50.48
2022-09-18T19:06:49.129Z,50.72
2022-09-18T19:09:24.421Z,50.32
2022-09-18T19:11:53.096Z,50.19
2022-09-18T19:14:25.215Z,49.70
2022-09-18T19:16:54.506Z,49.37
2022-09-18T19:19:24.937Z,49.42
2022-09-18T19:21:53.582Z,48.73
2022-09-18T19:24:22.306Z,48.89
2022-09-18T19:26:50.326Z,49.51
2022-09-18T19:29:21.691Z,49.30
2022-09-18T19:31:50.510Z,49.04
2022-09-18T19:34:20.946Z,49.09
2022-09-18T19:36:50.819Z,49.02
2022-09-18T19:39:21.295Z,48.87
2022-09-18T19:42:12.331Z,48.62
2022-09-18T19:44:56.168Z,48.17
2022-09-18T19:47:26.743Z,47.74
2022-09-18T19:50:02.212Z,47.71
2022-09-18T19:52:30.153Z,47.53
2022-09-18T19:54:59.328Z,47.12
2022-09-18T19:57:28.642Z,46.38
2022-09-18T19:59:57.454Z,46.27
2022-09-18T20:02:25.654Z,45.74
2022-09-18T20:04:54.094Z,45.82
2022-09-18T20:07:21.781Z,45.35
2022-09-18T20:09:49.860Z,45.10
2022-09-18T20:12:17.614Z,44.88
2022-09-18T20:14:45.295Z,44.25
2022-09-18T20:17:13.511Z,45.19
2022-09-18T20:19:41.254Z,44.61
2022-09-18T20:22:09.041Z,44.37
2022-09-18T20:24:37.651Z,43.46
2022-09-18T20:27:05.643Z,43.85
2022-09-18T20:29:34.047Z,43.26
2022-09-18T20:32:02.863Z,43.29
2022-09-18T20:34:30.526Z,43.37
2022-09-18T20:37:02.855Z,43.72
2022-09-18T20:39:30.766Z,42.72
2022-09-18T20:42:00.581Z,43.24
2022-09-18T20:44:29.415Z,42.72
2022-09-18T20:46:58.082Z,43.05
2022-09-18T20:49:26.028Z,43.00
2022-09-18T20:51:54.532Z,42.92
2022-09-18T20:54:22.979Z,42.89
2022-09-18T20:56:50.676Z,42.93
2022-09-18T20:59:19.401Z,42.81
2022-09-18T21:01:50.067Z,42.96
2022-09-18T21:04:20.741Z,42.89
2022-09-18T21:06:56.328Z,43.09
2022-09-18T21:09:27.615Z,43.64
2022-09-18T21:11:56.993Z,43.10
2022-09-18T21:14:25.588Z,43.17
2022-09-18T21:16:54.281Z,43.38
2022-09-18T21:19:24.442Z,43.61
2022-09-18T21:21:52.226Z,43.31
2022-09-18T21:24:22.001Z,43.72
2022-09-18T21:26:50.572Z,43.48
2022-09-18T21:29:21.051Z,43.03
2022-09-18T21:31:51.975Z,43.48
2022-09-18T21:34:27.080Z,42.97
2022-09-18T21:37:00.386Z,43.29
2022-09-18T21:39:30.014Z,42.90
2022-09-18T21:42:01.659Z,42.54
2022-09-18T21:44:31.846Z,42.16
2022-09-18T21:47:05.737Z,42.23
2022-09-18T21:49:34.313Z,42.59
2022-09-18T21:52:08.101Z,41.79
2022-09-18T21:54:36.176Z,41.01
2022-09-18T21:57:03.924Z,41.35
2022-09-18T21:59:32.233Z,41.28
2022-09-18T22:02:00.709Z,41.05
2022-09-18T22:04:32.271Z,40.97
2022-09-18T22:07:01.676Z,41.21
2022-09-18T22:09:38.855Z,41.01
2022-09-18T22:12:07.798Z,41.32
2022-09-18T22:14:38.323Z,41.35
2022-09-18T22:17:09.149Z,40.65
2022-09-18T22:19:41.147Z,40.52
2022-09-18T22:22:10.512Z,40.68
2022-09-18T22:24:38.834Z,40.17
2022-09-18T22:27:08.564Z,40.47
2022-09-18T22:29:39.143Z,40.49
2022-09-18T22:32:10.163Z,40.37
2022-09-18T22:34:37.878Z,40.27
2022-09-18T22:37:05.440Z,40.06
2022-09-18T22:39:33.514Z,39.98
2022-09-18T22:42:01.911Z,40.09
2022-09-18T22:44:31.150Z,40.42
2022-09-18T22:46:59.108Z,40.31
2022-09-18T22:49:26.673Z,40.33
2022-09-18T22:51:54.804Z,40.42
2022-09-18T22:54:26.927Z,40.36
2022-09-18T22:56:55.874Z,40.25
2022-09-18T22:59:26.218Z,40.16
2022-09-18T23:02:04.208Z,39.43
2022-09-18T23:04:33.856Z,39.80
2022-09-18T23:07:02.551Z,39.47
2022-09-18T23:09:31.073Z,39.38
2022-09-18T23:11:59.551Z,39.30
2022-09-18T23:14:29.948Z,39.48
2022-09-18T23:16:59.441Z,39.00
2022-09-18T23:19:33.889Z,39.11
2022-09-18T23:22:01.509Z,38.81
2022-09-18T23:24:29.645Z,38.44
2022-09-18T23:26:58.788Z,38.34
2022-09-18T23:29:28.509Z,38.10
2022-09-18T23:31:59.744Z,38.42
2022-09-18T23:34:33.776Z,38.05
2022-09-18T23:37:01.792Z,38.00
2022-09-18T23:39:34.999Z,38.03
2022-09-18T23:42:05.762Z,37.93
2022-09-18T23:44:33.547Z,38.25
2022-09-18T23:47:01.357Z,37.74
2022-09-18T23:49:30.310Z,37.56
2022-09-18T23:51:59.475Z,38.03
2022-09-18T23:54:32.414Z,37.62
2022-09-18T23:57:00.534Z,37.68
2022-09-18T23:59:28.604Z,37.76
